sensor_id;sensor_type;location;lat;lon;timestamp;temperature;humidity
27797;DHT22;15177;50.844;4.412;2023-10-13T00:01:58;19.50;99.90
27797;DHT22;15177;50.844;4.412;2023-10-13T00:04:28;19.50;99.90
27797;DHT22;15177;50.844;4.412;2023-10-13T00:06:55;19.60;99.90
27797;DHT22;15177;50.844;4.412;2023-10-13T00:09:25;19.50;99.90
27797;DHT22;15177;50.844;4.412;2023-10-13T00:11:54;19.50;99.90
27797;DHT22;15177;50.844;4.412;2023-10-13T00:14:22;19.50;99.90
27797;DHT22;15177;50.844;4.412;2023-10-13T00:16:48;19.40;99.90
27797;DHT22;15177;50.844;4.412;2023-10-13T00:19:34;19.50;99.90
27797;DHT22;15177;50.844;4.412;2023-10-13T00:22:08;19.50;99.90
27797;DHT22;15177;50.844;4.412;2023-10-13T00:24:40;19.50;99.90
27797;DHT22;15177;50.844;4.412;2023-10-13T00:27:12;19.50;99.90
27797;DHT22;15177;50.844;4.412;2023-10-13T00:30:03;19.60;99.90
27797;DHT22;15177;50.844;4.412;2023-10-13T00:32:44;19.60;99.90
27797;DHT22;15177;50.844;4.412;2023-10-13T00:35:17;19.60;99.90
27797;DHT22;15177;50.844;4.412;2023-10-13T00:38:03;19.60;99.90
27797;DHT22;15177;50.844;4.412;2023-10-13T00:40:30;19.50;99.90
27797;DHT22;15177;50.844;4.412;2023-10-13T00:43:00;19.50;99.90
27797;DHT22;15177;50.844;4.412;2023-10-13T00:45:56;19.60;99.90
27797;DHT22;15177;50.844;4.412;2023-10-13T00:48:30;19.60;99.90
27797;DHT22;15177;50.844;4.412;2023-10-13T00:51:06;19.60;99.90
27797;DHT22;15177;50.844;4.412;2023-10-13T00:53:34;19.50;99.90
27797;DHT22;15177;50.844;4.412;2023-10-13T00:56:03;19.60;99.90
27797;DHT22;15177;50.844;4.412;2023-10-13T00:58:44;19.70;99.90
27797;DHT22;15177;50.844;4.412;2023-10-13T01:01:12;19.70;99.90
27797;DHT22;15177;50.844;4.412;2023-10-13T01:03:51;19.60;99.90
27797;DHT22;15177;50.844;4.412;2023-10-13T01:06:21;19.40;99.90
27797;DHT22;15177;50.844;4.412;2023-10-13T01:09:01;19.40;99.90
27797;DHT22;15177;50.844;4.412;2023-10-13T01:11:36;19.40;99.90
27797;DHT22;15177;50.844;4.412;2023-10-13T01:14:01;19.40;99.90
27797;DHT22;15177;50.844;4.412;2023-10-13T01:16:29;19.30;99.90
27797;DHT22;15177;50.844;4.412;2023-10-13T01:18:55;19.40;99.90
27797;DHT22;15177;50.844;4.412;2023-10-13T01:21:26;19.50;99.90
27797;DHT22;15177;50.844;4.412;2023-10-13T01:23:55;19.60;99.90
27797;DHT22;15177;50.844;4.412;2023-10-13T01:26:21;19.40;99.90
27797;DHT22;15177;50.844;4.412;2023-10-13T01:28:59;19.50;99.90
27797;DHT22;15177;50.844;4.412;2023-10-13T01:31:24;19.40;99.90
27797;DHT22;15177;50.844;4.412;2023-10-13T01:33:53;19.40;99.90
27797;DHT22;15177;50.844;4.412;2023-10-13T01:36:21;19.40;99.90
27797;DHT22;15177;50.844;4.412;2023-10-13T01:38:47;19.50;99.90
27797;DHT22;15177;50.844;4.412;2023-10-13T01:41:14;19.60;99.90
27797;DHT22;15177;50.844;4.412;2023-10-13T01:43:40;19.70;99.90
27797;DHT22;15177;50.844;4.412;2023-10-13T01:46:06;19.70;99.90
27797;DHT22;15177;50.844;4.412;2023-10-13T01:48:31;19.60;99.90
27797;DHT22;15177;50.844;4.412;2023-10-13T01:51:04;19.60;99.90
27797;DHT22;15177;50.844;4.412;2023-10-13T01:53:31;19.50;99.90
27797;DHT22;15177;50.844;4.412;2023-10-13T01:55:57;19.60;99.90
27797;DHT22;15177;50.844;4.412;2023-10-13T01:58:23;19.60;99.90
27797;DHT22;15177;50.844;4.412;2023-10-13T02:00:52;19.50;99.90
27797;DHT22;15177;50.844;4.412;2023-10-13T02:03:17;19.50;99.90
27797;DHT22;15177;50.844;4.412;2023-10-13T02:05:47;19.60;99.90
27797;DHT22;15177;50.844;4.412;2023-10-13T02:08:17;19.70;99.90
27797;DHT22;15177;50.844;4.412;2023-10-13T02:10:53;19.50;99.90
27797;DHT22;15177;50.844;4.412;2023-10-13T02:13:20;19.60;99.90
27797;DHT22;15177;50.844;4.412;2023-10-13T02:15:48;19.50;99.90
27797;DHT22;15177;50.844;4.412;2023-10-13T02:18:18;19.40;99.90
27797;DHT22;15177;50.844;4.412;2023-10-13T02:21:08;19.50;99.90
27797;DHT22;15177;50.844;4.412;2023-10-13T02:23:42;19.40;99.90
27797;DHT22;15177;50.844;4.412;2023-10-13T02:26:12;19.50;99.90
27797;DHT22;15177;50.844;4.412;2023-10-13T02:28:42;19.50;99.90
27797;DHT22;15177;50.844;4.412;2023-10-13T02:31:09;19.40;99.90
27797;DHT22;15177;50.844;4.412;2023-10-13T02:33:36;19.40;99.90
27797;DHT22;15177;50.844;4.412;2023-10-13T02:36:10;19.50;99.90
27797;DHT22;15177;50.844;4.412;2023-10-13T02:38:37;19.60;99.90
27797;DHT22;15177;50.844;4.412;2023-10-13T02:41:17;19.50;99.90
27797;DHT22;15177;50.844;4.412;2023-10-13T02:43:55;19.60;99.90
27797;DHT22;15177;50.844;4.412;2023-10-13T02:46:21;19.60;99.90
27797;DHT22;15177;50.844;4.412;2023-10-13T02:48:48;19.40;99.90
27797;DHT22;15177;50.844;4.412;2023-10-13T02:51:19;19.40;99.90
27797;DHT22;15177;50.844;4.412;2023-10-13T02:53:49;19.30;99.90
27797;DHT22;15177;50.844;4.412;2023-10-13T02:56:16;19.50;99.90
27797;DHT22;15177;50.844;4.412;2023-10-13T02:58:49;19.50;99.90
27797;DHT22;15177;50.844;4.412;2023-10-13T03:01:19;19.60;99.90
27797;DHT22;15177;50.844;4.412;2023-10-13T03:03:48;19.50;99.90
27797;DHT22;15177;50.844;4.412;2023-10-13T03:06:17;19.60;99.90
27797;DHT22;15177;50.844;4.412;2023-10-13T03:08:47;19.60;99.90
27797;DHT22;15177;50.844;4.412;2023-10-13T03:11:12;19.40;99.90
27797;DHT22;15177;50.844;4.412;2023-10-13T03:13:42;19.30;99.90
27797;DHT22;15177;50.844;4.412;2023-10-13T03:16:20;19.30;99.90
27797;DHT22;15177;50.844;4.412;2023-10-13T03:18:49;19.30;99.90
27797;DHT22;15177;50.844;4.412;2023-10-13T03:21:24;19.50;99.90
27797;DHT22;15177;50.844;4.412;2023-10-13T03:24:00;19.50;99.90
27797;DHT22;15177;50.844;4.412;2023-10-13T03:26:32;19.50;99.90
27797;DHT22;15177;50.844;4.412;2023-10-13T03:29:03;19.50;99.90
27797;DHT22;15177;50.844;4.412;2023-10-13T03:31:32;19.50;99.90
27797;DHT22;15177;50.844;4.412;2023-10-13T03:34:03;19.40;99.90
27797;DHT22;15177;50.844;4.412;2023-10-13T03:36:29;19.40;99.90
27797;DHT22;15177;50.844;4.412;2023-10-13T03:39:13;19.40;99.90
27797;DHT22;15177;50.844;4.412;2023-10-13T03:41:39;19.40;99.90
27797;DHT22;15177;50.844;4.412;2023-10-13T03:44:06;19.40;99.90
27797;DHT22;15177;50.844;4.412;2023-10-13T03:46:54;19.40;99.90
27797;DHT22;15177;50.844;4.412;2023-10-13T03:49:20;19.40;99.90
27797;DHT22;15177;50.844;4.412;2023-10-13T03:51:50;19.40;99.90
27797;DHT22;15177;50.844;4.412;2023-10-13T03:54:16;19.30;99.90
27797;DHT22;15177;50.844;4.412;2023-10-13T03:56:42;19.30;99.90
27797;DHT22;15177;50.844;4.412;2023-10-13T03:59:11;19.30;99.90
27797;DHT22;15177;50.844;4.412;2023-10-13T04:01:43;19.30;99.90
27797;DHT22;15177;50.844;4.412;2023-10-13T04:04:09;19.30;99.90
27797;DHT22;15177;50.844;4.412;2023-10-13T04:06:40;19.30;99.90
27797;DHT22;15177;50.844;4.412;2023-10-13T04:11:56;19.20;99.90
27797;DHT22;15177;50.844;4.412;2023-10-13T04:14:35;19.20;99.90
27797;DHT22;15177;50.844;4.412;2023-10-13T04:17:07;19.20;99.90
27797;DHT22;15177;50.844;4.412;2023-10-13T04:19:40;19.20;99.90
27797;DHT22;15177;50.844;4.412;2023-10-13T04:22:26;19.20;99.90
27797;DHT22;15177;50.844;4.412;2023-10-13T04:25:22;19.30;99.90
27797;DHT22;15177;50.844;4.412;2023-10-13T04:28:11;19.20;99.90
27797;DHT22;15177;50.844;4.412;2023-10-13T04:30:40;19.20;99.90
27797;DHT22;15177;50.844;4.412;2023-10-13T04:33:31;19.20;99.90
27797;DHT22;15177;50.844;4.412;2023-10-13T04:36:04;19.20;99.90
27797;DHT22;15177;50.844;4.412;2023-10-13T04:38:50;19.20;99.90
27797;DHT22;15177;50.844;4.412;2023-10-13T04:41:51;19.20;99.90
27797;DHT22;15177;50.844;4.412;2023-10-13T04:44:19;19.30;99.90
27797;DHT22;15177;50.844;4.412;2023-10-13T04:47:04;19.20;99.90
27797;DHT22;15177;50.844;4.412;2023-10-13T04:49:31;19.20;99.90
27797;DHT22;15177;50.844;4.412;2023-10-13T04:52:01;19.30;99.90
27797;DHT22;15177;50.844;4.412;2023-10-13T04:54:37;19.20;99.90
27797;DHT22;15177;50.844;4.412;2023-10-13T04:57:23;19.20;99.90
27797;DHT22;15177;50.844;4.412;2023-10-13T05:00:13;19.00;99.90
27797;DHT22;15177;50.844;4.412;2023-10-13T05:02:46;19.20;99.90
27797;DHT22;15177;50.844;4.412;2023-10-13T05:05:15;19.20;99.90
27797;DHT22;15177;50.844;4.412;2023-10-13T05:07:45;19.10;99.90
27797;DHT22;15177;50.844;4.412;2023-10-13T05:10:30;19.10;99.90
27797;DHT22;15177;50.844;4.412;2023-10-13T05:13:15;19.10;99.90
27797;DHT22;15177;50.844;4.412;2023-10-13T05:15:59;19.10;99.90
27797;DHT22;15177;50.844;4.412;2023-10-13T05:18:44;19.30;99.90
27797;DHT22;15177;50.844;4.412;2023-10-13T05:21:28;19.20;99.90
27797;DHT22;15177;50.844;4.412;2023-10-13T05:24:13;19.20;99.90
27797;DHT22;15177;50.844;4.412;2023-10-13T05:26:58;19.30;99.90
27797;DHT22;15177;50.844;4.412;2023-10-13T05:29:44;19.20;99.90
27797;DHT22;15177;50.844;4.412;2023-10-13T05:32:29;19.10;99.90
27797;DHT22;15177;50.844;4.412;2023-10-13T05:35:15;19.10;99.90
27797;DHT22;15177;50.844;4.412;2023-10-13T05:38:00;19.20;99.90
27797;DHT22;15177;50.844;4.412;2023-10-13T05:43:37;19.20;99.90
27797;DHT22;15177;50.844;4.412;2023-10-13T05:46:21;19.20;99.90
27797;DHT22;15177;50.844;4.412;2023-10-13T05:48:54;19.20;99.90
27797;DHT22;15177;50.844;4.412;2023-10-13T05:51:26;19.20;99.90
27797;DHT22;15177;50.844;4.412;2023-10-13T05:54:02;19.30;99.90
27797;DHT22;15177;50.844;4.412;2023-10-13T05:56:54;19.20;99.90
27797;DHT22;15177;50.844;4.412;2023-10-13T05:59:39;19.20;99.90
27797;DHT22;15177;50.844;4.412;2023-10-13T06:02:24;19.20;99.90
27797;DHT22;15177;50.844;4.412;2023-10-13T06:05:10;19.30;99.90
27797;DHT22;15177;50.844;4.412;2023-10-13T06:07:56;19.10;99.90
27797;DHT22;15177;50.844;4.412;2023-10-13T06:10:40;19.20;99.90
27797;DHT22;15177;50.844;4.412;2023-10-13T06:13:25;19.20;99.90
27797;DHT22;15177;50.844;4.412;2023-10-13T06:16:15;19.30;99.90
27797;DHT22;15177;50.844;4.412;2023-10-13T06:19:01;19.30;99.90
27797;DHT22;15177;50.844;4.412;2023-10-13T06:21:45;19.40;99.90
27797;DHT22;15177;50.844;4.412;2023-10-13T06:24:30;19.40;99.90
27797;DHT22;15177;50.844;4.412;2023-10-13T06:27:16;19.40;99.90
27797;DHT22;15177;50.844;4.412;2023-10-13T06:30:01;19.30;99.90
27797;DHT22;15177;50.844;4.412;2023-10-13T06:32:29;19.40;99.90
27797;DHT22;15177;50.844;4.412;2023-10-13T06:34:56;19.50;99.90
27797;DHT22;15177;50.844;4.412;2023-10-13T06:37:24;19.50;99.90
27797;DHT22;15177;50.844;4.412;2023-10-13T06:40:09;19.70;99.90
27797;DHT22;15177;50.844;4.412;2023-10-13T06:42:54;19.70;99.90
27797;DHT22;15177;50.844;4.412;2023-10-13T06:45:37;19.80;99.90
27797;DHT22;15177;50.844;4.412;2023-10-13T06:48:03;19.80;99.90
27797;DHT22;15177;50.844;4.412;2023-10-13T06:50:30;19.70;99.90
27797;DHT22;15177;50.844;4.412;2023-10-13T06:53:04;19.90;99.90
27797;DHT22;15177;50.844;4.412;2023-10-13T06:55:30;20.00;99.90
27797;DHT22;15177;50.844;4.412;2023-10-13T06:58:01;20.10;99.90
27797;DHT22;15177;50.844;4.412;2023-10-13T07:00:27;20.20;99.90
27797;DHT22;15177;50.844;4.412;2023-10-13T07:02:55;20.20;99.90
27797;DHT22;15177;50.844;4.412;2023-10-13T07:05:37;20.20;99.90
27797;DHT22;15177;50.844;4.412;2023-10-13T07:08:10;20.40;99.90
27797;DHT22;15177;50.844;4.412;2023-10-13T07:10:39;20.50;99.90
27797;DHT22;15177;50.844;4.412;2023-10-13T07:13:17;20.50;99.90
27797;DHT22;15177;50.844;4.412;2023-10-13T07:15:45;20.50;99.90
27797;DHT22;15177;50.844;4.412;2023-10-13T07:18:15;20.40;99.90
27797;DHT22;15177;50.844;4.412;2023-10-13T07:20:48;20.50;99.90
27797;DHT22;15177;50.844;4.412;2023-10-13T07:23:15;20.60;99.90
27797;DHT22;15177;50.844;4.412;2023-10-13T07:25:52;20.70;99.90
27797;DHT22;15177;50.844;4.412;2023-10-13T07:28:25;21.10;99.90
27797;DHT22;15177;50.844;4.412;2023-10-13T07:30:50;21.40;99.90
27797;DHT22;15177;50.844;4.412;2023-10-13T07:33:19;21.50;99.90
27797;DHT22;15177;50.844;4.412;2023-10-13T07:35:46;21.50;99.90
27797;DHT22;15177;50.844;4.412;2023-10-13T07:38:17;21.70;99.90
27797;DHT22;15177;50.844;4.412;2023-10-13T07:40:46;21.70;99.90
27797;DHT22;15177;50.844;4.412;2023-10-13T07:43:18;21.70;99.90
27797;DHT22;15177;50.844;4.412;2023-10-13T07:45:47;21.50;99.90
27797;DHT22;15177;50.844;4.412;2023-10-13T07:48:16;21.40;99.90
27797;DHT22;15177;50.844;4.412;2023-10-13T07:51:07;21.30;99.90
27797;DHT22;15177;50.844;4.412;2023-10-13T07:53:51;21.30;99.90
27797;DHT22;15177;50.844;4.412;2023-10-13T07:56:18;21.50;99.90
27797;DHT22;15177;50.844;4.412;2023-10-13T07:58:45;21.70;99.90
27797;DHT22;15177;50.844;4.412;2023-10-13T08:01:28;21.90;99.90
27797;DHT22;15177;50.844;4.412;2023-10-13T08:03:54;22.00;99.90
27797;DHT22;15177;50.844;4.412;2023-10-13T08:06:40;21.90;99.90
27797;DHT22;15177;50.844;4.412;2023-10-13T08:09:09;22.00;99.90
27797;DHT22;15177;50.844;4.412;2023-10-13T08:11:56;22.00;99.90
27797;DHT22;15177;50.844;4.412;2023-10-13T08:14:21;22.00;99.90
27797;DHT22;15177;50.844;4.412;2023-10-13T08:16:54;22.10;99.90
27797;DHT22;15177;50.844;4.412;2023-10-13T08:19:26;22.10;99.90
27797;DHT22;15177;50.844;4.412;2023-10-13T08:22:05;22.10;99.90
27797;DHT22;15177;50.844;4.412;2023-10-13T08:24:44;22.30;99.90
27797;DHT22;15177;50.844;4.412;2023-10-13T08:27:10;22.50;99.90
27797;DHT22;15177;50.844;4.412;2023-10-13T08:29:54;22.50;99.90
27797;DHT22;15177;50.844;4.412;2023-10-13T08:32:24;22.40;99.90
27797;DHT22;15177;50.844;4.412;2023-10-13T08:34:53;22.30;99.90
27797;DHT22;15177;50.844;4.412;2023-10-13T08:37:20;22.30;99.90
27797;DHT22;15177;50.844;4.412;2023-10-13T08:39:50;22.30;99.90
27797;DHT22;15177;50.844;4.412;2023-10-13T08:42:43;22.30;99.90
27797;DHT22;15177;50.844;4.412;2023-10-13T08:45:16;22.20;99.90
27797;DHT22;15177;50.844;4.412;2023-10-13T08:47:50;22.20;99.90
27797;DHT22;15177;50.844;4.412;2023-10-13T08:50:49;22.30;99.90
27797;DHT22;15177;50.844;4.412;2023-10-13T08:53:22;22.40;99.90
27797;DHT22;15177;50.844;4.412;2023-10-13T08:56:03;22.40;99.90
27797;DHT22;15177;50.844;4.412;2023-10-13T08:58:57;22.40;99.90
27797;DHT22;15177;50.844;4.412;2023-10-13T09:01:34;22.40;99.90
27797;DHT22;15177;50.844;4.412;2023-10-13T09:04:03;22.30;99.90
27797;DHT22;15177;50.844;4.412;2023-10-13T09:06:54;22.30;99.90
27797;DHT22;15177;50.844;4.412;2023-10-13T09:09:46;22.30;99.90
27797;DHT22;15177;50.844;4.412;2023-10-13T09:12:28;22.20;99.90
27797;DHT22;15177;50.844;4.412;2023-10-13T09:14:58;22.10;99.90
27797;DHT22;15177;50.844;4.412;2023-10-13T09:17:25;22.10;99.90
27797;DHT22;15177;50.844;4.412;2023-10-13T09:20:08;22.20;99.90
27797;DHT22;15177;50.844;4.412;2023-10-13T09:22:56;22.20;99.90
27797;DHT22;15177;50.844;4.412;2023-10-13T09:25:32;22.20;99.90
27797;DHT22;15177;50.844;4.412;2023-10-13T09:28:03;22.20;99.90
27797;DHT22;15177;50.844;4.412;2023-10-13T09:30:46;22.20;99.90
27797;DHT22;15177;50.844;4.412;2023-10-13T09:33:11;22.30;99.90
27797;DHT22;15177;50.844;4.412;2023-10-13T09:35:43;22.30;99.90
27797;DHT22;15177;50.844;4.412;2023-10-13T09:38:16;22.30;99.90
27797;DHT22;15177;50.844;4.412;2023-10-13T09:40:43;22.40;99.90
27797;DHT22;15177;50.844;4.412;2023-10-13T09:43:18;22.50;99.90
27797;DHT22;15177;50.844;4.412;2023-10-13T09:45:49;22.60;99.90
27797;DHT22;15177;50.844;4.412;2023-10-13T09:48:45;22.70;99.90
27797;DHT22;15177;50.844;4.412;2023-10-13T09:51:14;22.80;99.90
27797;DHT22;15177;50.844;4.412;2023-10-13T09:53:52;22.70;99.90
27797;DHT22;15177;50.844;4.412;2023-10-13T09:56:34;22.70;99.90
27797;DHT22;15177;50.844;4.412;2023-10-13T09:59:22;22.90;99.90
27797;DHT22;15177;50.844;4.412;2023-10-13T10:01:51;22.90;99.90
27797;DHT22;15177;50.844;4.412;2023-10-13T10:04:25;23.00;99.90
27797;DHT22;15177;50.844;4.412;2023-10-13T10:06:58;23.20;99.90
27797;DHT22;15177;50.844;4.412;2023-10-13T10:09:31;23.40;99.90
27797;DHT22;15177;50.844;4.412;2023-10-13T10:17:46;23.40;99.90
27797;DHT22;15177;50.844;4.412;2023-10-13T10:20:13;23.40;99.90
27797;DHT22;15177;50.844;4.412;2023-10-13T10:22:59;23.30;99.90
27797;DHT22;15177;50.844;4.412;2023-10-13T10:25:34;23.40;99.90
27797;DHT22;15177;50.844;4.412;2023-10-13T10:28:02;23.30;99.90
27797;DHT22;15177;50.844;4.412;2023-10-13T10:30:32;23.50;99.90
27797;DHT22;15177;50.844;4.412;2023-10-13T10:33:00;23.80;99.90
27797;DHT22;15177;50.844;4.412;2023-10-13T10:35:28;24.10;99.90
27797;DHT22;15177;50.844;4.412;2023-10-13T10:38:08;24.30;99.90
27797;DHT22;15177;50.844;4.412;2023-10-13T10:41:01;24.30;99.90
27797;DHT22;15177;50.844;4.412;2023-10-13T10:46:18;24.00;99.90
27797;DHT22;15177;50.844;4.412;2023-10-13T10:48:47;24.00;99.90
27797;DHT22;15177;50.844;4.412;2023-10-13T10:51:15;24.00;99.90
27797;DHT22;15177;50.844;4.412;2023-10-13T10:53:47;24.10;99.90
27797;DHT22;15177;50.844;4.412;2023-10-13T10:56:15;24.30;99.90
27797;DHT22;15177;50.844;4.412;2023-10-13T10:59:01;24.40;99.90
27797;DHT22;15177;50.844;4.412;2023-10-13T11:01:32;24.70;99.90
27797;DHT22;15177;50.844;4.412;2023-10-13T11:04:09;24.70;99.90
27797;DHT22;15177;50.844;4.412;2023-10-13T11:06:55;24.70;99.90
27797;DHT22;15177;50.844;4.412;2023-10-13T11:09:32;24.60;99.90
27797;DHT22;15177;50.844;4.412;2023-10-13T11:12:09;24.50;99.90
27797;DHT22;15177;50.844;4.412;2023-10-13T11:14:41;24.50;99.90
27797;DHT22;15177;50.844;4.412;2023-10-13T11:17:07;24.30;99.90
27797;DHT22;15177;50.844;4.412;2023-10-13T11:19:46;24.40;99.90
27797;DHT22;15177;50.844;4.412;2023-10-13T11:22:16;24.50;99.90
27797;DHT22;15177;50.844;4.412;2023-10-13T11:24:56;24.60;99.90
27797;DHT22;15177;50.844;4.412;2023-10-13T11:27:32;24.60;99.90
27797;DHT22;15177;50.844;4.412;2023-10-13T11:30:19;24.60;99.90
27797;DHT22;15177;50.844;4.412;2023-10-13T11:33:05;24.80;99.90
27797;DHT22;15177;50.844;4.412;2023-10-13T11:35:37;24.80;99.90
27797;DHT22;15177;50.844;4.412;2023-10-13T11:38:23;24.80;99.90
27797;DHT22;15177;50.844;4.412;2023-10-13T11:41:03;24.90;99.90
27797;DHT22;15177;50.844;4.412;2023-10-13T11:43:52;24.90;99.90
27797;DHT22;15177;50.844;4.412;2023-10-13T11:46:25;24.90;99.90
27797;DHT22;15177;50.844;4.412;2023-10-13T11:49:10;24.70;99.90
27797;DHT22;15177;50.844;4.412;2023-10-13T11:51:42;24.80;99.90
27797;DHT22;15177;50.844;4.412;2023-10-13T11:54:17;24.80;99.90
27797;DHT22;15177;50.844;4.412;2023-10-13T11:56:44;24.70;99.90
27797;DHT22;15177;50.844;4.412;2023-10-13T11:59:11;24.50;99.90
27797;DHT22;15177;50.844;4.412;2023-10-13T12:01:50;24.50;99.90
27797;DHT22;15177;50.844;4.412;2023-10-13T12:04:36;24.70;99.90
27797;DHT22;15177;50.844;4.412;2023-10-13T12:07:18;24.70;99.90
27797;DHT22;15177;50.844;4.412;2023-10-13T12:10:10;24.90;99.90
27797;DHT22;15177;50.844;4.412;2023-10-13T12:13:00;24.90;99.90
27797;DHT22;15177;50.844;4.412;2023-10-13T12:15:32;24.90;99.90
27797;DHT22;15177;50.844;4.412;2023-10-13T12:18:15;24.80;99.90
27797;DHT22;15177;50.844;4.412;2023-10-13T12:20:41;24.70;99.90
27797;DHT22;15177;50.844;4.412;2023-10-13T12:23:12;24.50;99.90
27797;DHT22;15177;50.844;4.412;2023-10-13T12:25:45;24.40;99.90
27797;DHT22;15177;50.844;4.412;2023-10-13T12:28:32;24.30;99.90
27797;DHT22;15177;50.844;4.412;2023-10-13T12:31:04;24.30;99.90
27797;DHT22;15177;50.844;4.412;2023-10-13T12:33:34;24.30;99.90
27797;DHT22;15177;50.844;4.412;2023-10-13T12:36:13;24.20;99.90
27797;DHT22;15177;50.844;4.412;2023-10-13T12:38:39;24.10;99.90
27797;DHT22;15177;50.844;4.412;2023-10-13T12:41:07;24.10;99.90
27797;DHT22;15177;50.844;4.412;2023-10-13T12:43:51;23.90;99.90
27797;DHT22;15177;50.844;4.412;2023-10-13T12:46:37;23.90;99.90
27797;DHT22;15177;50.844;4.412;2023-10-13T12:49:21;23.80;99.90
27797;DHT22;15177;50.844;4.412;2023-10-13T12:52:19;23.80;99.90
27797;DHT22;15177;50.844;4.412;2023-10-13T12:54:48;23.80;99.90
27797;DHT22;15177;50.844;4.412;2023-10-13T12:57:27;23.70;99.90
27797;DHT22;15177;50.844;4.412;2023-10-13T12:59:55;23.70;99.90
27797;DHT22;15177;50.844;4.412;2023-10-13T13:02:25;23.70;99.90
27797;DHT22;15177;50.844;4.412;2023-10-13T13:04:54;23.70;99.90
27797;DHT22;15177;50.844;4.412;2023-10-13T13:07:24;23.60;99.90
27797;DHT22;15177;50.844;4.412;2023-10-13T13:09:55;23.60;99.90
27797;DHT22;15177;50.844;4.412;2023-10-13T13:12:27;23.60;99.90
27797;DHT22;15177;50.844;4.412;2023-10-13T13:14:55;23.60;99.90
27797;DHT22;15177;50.844;4.412;2023-10-13T13:17:21;23.80;99.90
27797;DHT22;15177;50.844;4.412;2023-10-13T13:19:47;23.80;99.90
27797;DHT22;15177;50.844;4.412;2023-10-13T13:22:13;24.00;99.90
27797;DHT22;15177;50.844;4.412;2023-10-13T13:24:47;23.90;99.90
27797;DHT22;15177;50.844;4.412;2023-10-13T13:27:14;23.90;99.90
27797;DHT22;15177;50.844;4.412;2023-10-13T13:29:41;23.80;99.90
27797;DHT22;15177;50.844;4.412;2023-10-13T13:32:07;23.70;99.90
27797;DHT22;15177;50.844;4.412;2023-10-13T13:34:46;23.80;99.90
27797;DHT22;15177;50.844;4.412;2023-10-13T13:37:20;23.80;99.90
27797;DHT22;15177;50.844;4.412;2023-10-13T13:39:46;23.80;99.90
27797;DHT22;15177;50.844;4.412;2023-10-13T13:42:12;23.70;99.90
27797;DHT22;15177;50.844;4.412;2023-10-13T13:44:44;23.70;99.90
27797;DHT22;15177;50.844;4.412;2023-10-13T13:47:12;23.60;99.90
27797;DHT22;15177;50.844;4.412;2023-10-13T13:49:39;23.70;99.90
27797;DHT22;15177;50.844;4.412;2023-10-13T13:52:17;23.80;99.90
27797;DHT22;15177;50.844;4.412;2023-10-13T13:54:43;23.80;99.90
27797;DHT22;15177;50.844;4.412;2023-10-13T13:57:09;23.80;99.90
27797;DHT22;15177;50.844;4.412;2023-10-13T13:59:35;23.90;99.90
27797;DHT22;15177;50.844;4.412;2023-10-13T14:02:02;23.80;99.90
27797;DHT22;15177;50.844;4.412;2023-10-13T14:04:45;23.80;99.90
27797;DHT22;15177;50.844;4.412;2023-10-13T14:07:15;23.90;99.90
27797;DHT22;15177;50.844;4.412;2023-10-13T14:09:42;23.80;99.90
27797;DHT22;15177;50.844;4.412;2023-10-13T14:12:09;23.80;99.90
27797;DHT22;15177;50.844;4.412;2023-10-13T14:14:54;23.80;99.90
27797;DHT22;15177;50.844;4.412;2023-10-13T14:17:23;23.80;99.90
27797;DHT22;15177;50.844;4.412;2023-10-13T14:19:57;23.80;99.90
27797;DHT22;15177;50.844;4.412;2023-10-13T14:22:23;23.70;99.90
27797;DHT22;15177;50.844;4.412;2023-10-13T14:24:52;23.70;99.90
27797;DHT22;15177;50.844;4.412;2023-10-13T14:27:21;23.70;99.90
27797;DHT22;15177;50.844;4.412;2023-10-13T14:29:49;23.70;99.90
27797;DHT22;15177;50.844;4.412;2023-10-13T14:32:19;23.70;99.90
27797;DHT22;15177;50.844;4.412;2023-10-13T14:34:46;23.80;99.90
27797;DHT22;15177;50.844;4.412;2023-10-13T14:37:14;23.70;99.90
27797;DHT22;15177;50.844;4.412;2023-10-13T14:39:46;23.70;99.90
27797;DHT22;15177;50.844;4.412;2023-10-13T14:42:12;23.70;99.90
27797;DHT22;15177;50.844;4.412;2023-10-13T14:44:37;23.60;99.90
27797;DHT22;15177;50.844;4.412;2023-10-13T14:47:03;23.60;99.90
27797;DHT22;15177;50.844;4.412;2023-10-13T14:49:34;23.60;99.90
27797;DHT22;15177;50.844;4.412;2023-10-13T14:52:01;23.50;99.90
27797;DHT22;15177;50.844;4.412;2023-10-13T14:54:27;23.50;99.90
27797;DHT22;15177;50.844;4.412;2023-10-13T14:57:02;23.30;99.90
27797;DHT22;15177;50.844;4.412;2023-10-13T14:59:28;23.40;99.90
27797;DHT22;15177;50.844;4.412;2023-10-13T15:01:59;23.30;99.90
27797;DHT22;15177;50.844;4.412;2023-10-13T15:04:26;23.20;99.90
27797;DHT22;15177;50.844;4.412;2023-10-13T15:06:54;23.20;99.90
27797;DHT22;15177;50.844;4.412;2023-10-13T15:09:20;23.20;99.90
27797;DHT22;15177;50.844;4.412;2023-10-13T15:11:49;23.10;99.90
27797;DHT22;15177;50.844;4.412;2023-10-13T15:14:19;23.10;99.90
27797;DHT22;15177;50.844;4.412;2023-10-13T15:16:47;23.10;99.90
27797;DHT22;15177;50.844;4.412;2023-10-13T15:19:13;23.00;99.90
27797;DHT22;15177;50.844;4.412;2023-10-13T15:21:39;23.00;99.90
27797;DHT22;15177;50.844;4.412;2023-10-13T15:24:09;22.90;99.90
27797;DHT22;15177;50.844;4.412;2023-10-13T15:26:47;22.90;99.90
27797;DHT22;15177;50.844;4.412;2023-10-13T15:29:17;22.90;99.90
27797;DHT22;15177;50.844;4.412;2023-10-13T15:31:46;22.80;99.90
27797;DHT22;15177;50.844;4.412;2023-10-13T15:34:31;22.80;99.90
27797;DHT22;15177;50.844;4.412;2023-10-13T15:36:57;22.60;99.90
27797;DHT22;15177;50.844;4.412;2023-10-13T15:39:24;22.40;99.90
27797;DHT22;15177;50.844;4.412;2023-10-13T15:41:54;22.30;99.90
27797;DHT22;15177;50.844;4.412;2023-10-13T15:44:23;22.40;99.90
27797;DHT22;15177;50.844;4.412;2023-10-13T15:46:53;22.40;99.90
27797;DHT22;15177;50.844;4.412;2023-10-13T15:49:19;22.20;99.90
27797;DHT22;15177;50.844;4.412;2023-10-13T15:51:45;22.20;99.90
27797;DHT22;15177;50.844;4.412;2023-10-13T15:54:12;22.30;99.90
27797;DHT22;15177;50.844;4.412;2023-10-13T15:56:51;22.40;99.90
27797;DHT22;15177;50.844;4.412;2023-10-13T15:59:16;22.40;99.90
27797;DHT22;15177;50.844;4.412;2023-10-13T16:01:42;22.20;99.90
27797;DHT22;15177;50.844;4.412;2023-10-13T16:04:11;22.30;99.90
27797;DHT22;15177;50.844;4.412;2023-10-13T16:06:43;22.30;99.90
27797;DHT22;15177;50.844;4.412;2023-10-13T16:09:12;22.40;99.90
27797;DHT22;15177;50.844;4.412;2023-10-13T16:11:42;22.40;99.90
27797;DHT22;15177;50.844;4.412;2023-10-13T16:14:12;22.30;99.90
27797;DHT22;15177;50.844;4.412;2023-10-13T16:16:43;22.30;99.90
27797;DHT22;15177;50.844;4.412;2023-10-13T16:19:20;22.10;99.90
27797;DHT22;15177;50.844;4.412;2023-10-13T16:21:54;21.90;99.90
27797;DHT22;15177;50.844;4.412;2023-10-13T16:24:20;22.00;99.90
27797;DHT22;15177;50.844;4.412;2023-10-13T16:26:47;21.90;99.90